Time;durP1;ratioP1;P1;durP2;ratioP2;P2;SDS_P1;SDS_P2;PMS_P1;PMS_P2;Temp;Humidity;BMP_temperature;BMP_pressure;BME280_temperature;BME280_humidity;BME280_pressure;Samples;Min_cycle;Max_cycle;Signal;HPM_P1;HPM_P2
2022/12/17 13:06:52;;;;;;;35.75;19.60;;;3.00;99.90;;;;;;4923224;28;20179;-71
2022/12/17 13:09:27;;;;;;;31.75;19.35;;;2.90;99.90;;;;;;4922904;28;20489;-71
2022/12/17 13:11:59;;;;;;;34.75;19.55;;;2.90;99.90;;;;;;4926848;28;20048;-70
2022/12/17 13:14:34;;;;;;;34.35;20.17;;;2.80;99.90;;;;;;4922086;28;20095;-70
2022/12/17 13:17:21;;;;;;;36.35;21.27;;;3.00;99.90;;;;;;4928056;28;20048;-70
2022/12/17 13:19:56;;;;;;;37.50;21.60;;;3.20;99.90;;;;;;4916165;28;20091;-70
2022/12/17 13:22:21;;;;;;;38.50;22.77;;;3.40;99.90;;;;;;4910681;28;20035;-70
2022/12/17 13:24:49;;;;;;;39.38;22.92;;;3.50;99.90;;;;;;4930135;28;20051;-70
2022/12/17 13:27:32;;;;;;;33.20;19.48;;;3.50;99.90;;;;;;4929354;28;20050;-70
2022/12/17 13:30:16;;;;;;;39.58;23.13;;;3.60;99.90;;;;;;4923286;28;20031;-70
2022/12/17 13:33:00;;;;;;;53.05;36.55;;;3.70;99.90;;;;;;4928000;28;20051;-70
2022/12/17 13:35:35;;;;;;;62.35;44.22;;;3.70;99.90;;;;;;4922838;28;20055;-70
2022/12/17 13:38:22;;;;;;;36.83;20.88;;;3.40;99.90;;;;;;4929451;28;20050;-70
2022/12/17 13:41:08;;;;;;;36.33;21.27;;;3.20;99.90;;;;;;4932637;28;20440;-70
2022/12/17 13:43:49;;;;;;;39.08;24.05;;;3.40;99.90;;;;;;4924373;28;20113;-70
2022/12/17 13:46:26;;;;;;;39.15;23.88;;;3.50;99.90;;;;;;4926562;28;20106;-71
2022/12/17 13:49:00;;;;;;;51.80;30.27;;;3.60;99.90;;;;;;4923855;28;20035;-71
2022/12/17 13:51:28;;;;;;;51.42;33.15;;;3.70;99.90;;;;;;4937143;28;20050;-71
2022/12/17 13:53:59;;;;;;;33.83;20.52;;;3.60;99.90;;;;;;4927629;28;20047;-71
2022/12/17 13:56:28;;;;;;;31.27;19.35;;;3.40;99.90;;;;;;4932709;28;20115;-71
2022/12/17 13:58:55;;;;;;;34.10;20.20;;;3.20;99.90;;;;;;4933313;28;20606;-71
2022/12/17 14:01:21;;;;;;;37.58;19.65;;;3.00;99.90;;;;;;4938262;28;20591;-71
2022/12/17 14:04:05;;;;;;;33.95;18.95;;;2.90;99.90;;;;;;4928574;28;20089;-71
2022/12/17 14:06:37;;;;;;;30.75;19.20;;;2.80;99.90;;;;;;4936544;28;20079;-71
2022/12/17 14:09:03;;;;;;;35.95;20.90;;;2.60;99.90;;;;;;4925655;28;20047;-71
2022/12/17 14:14:39;;;;;;;31.20;18.98;;;2.60;99.90;;;;;;4933629;28;20051;-71
2022/12/17 14:17:05;;;;;;;34.65;19.08;;;2.40;99.90;;;;;;4919640;28;20115;-71
2022/12/17 14:19:32;;;;;;;35.30;18.38;;;2.30;99.90;;;;;;4930966;28;20130;-70
2022/12/17 14:21:59;;;;;;;32.28;17.70;;;2.10;99.90;;;;;;4935942;28;20036;-71
2022/12/17 14:24:28;;;;;;;34.30;19.73;;;2.00;99.90;;;;;;4926444;28;20094;-70
2022/12/17 14:26:56;;;;;;;32.22;18.90;;;1.90;99.90;;;;;;4915367;28;20047;-71
2022/12/17 14:29:28;;;;;;;32.72;19.45;;;1.80;99.90;;;;;;4920663;28;20145;-70
2022/12/17 14:32:21;;;;;;;32.67;20.13;;;1.70;99.90;;;;;;4930440;28;20076;-71
2022/12/17 14:34:46;;;;;;;34.80;20.50;;;1.70;99.90;;;;;;4937916;28;20142;-70
2022/12/17 14:37:20;;;;;;;32.20;19.55;;;1.60;99.90;;;;;;4931296;28;20039;-72
2022/12/17 14:39:47;;;;;;;34.17;19.75;;;1.60;99.90;;;;;;4929777;28;21896;-70
2022/12/17 14:42:24;;;;;;;34.22;19.35;;;1.60;99.90;;;;;;4928825;28;20039;-70
2022/12/17 14:44:57;;;;;;;49.10;28.23;;;1.70;99.90;;;;;;4932866;28;20772;-71
2022/12/17 14:47:29;;;;;;;39.92;21.83;;;1.70;99.90;;;;;;4934007;28;20057;-70
2022/12/17 14:50:04;;;;;;;40.45;23.33;;;1.90;99.90;;;;;;4926758;28;20035;-70
2022/12/17 14:52:32;;;;;;;34.72;19.77;;;2.10;99.90;;;;;;4920847;28;20044;-70
2022/12/17 14:54:58;;;;;;;35.88;20.73;;;2.30;99.90;;;;;;4944558;28;20057;-70
2022/12/17 14:57:23;;;;;;;33.40;20.48;;;2.40;99.90;;;;;;4928377;29;20050;-70
2022/12/17 14:59:51;;;;;;;38.13;23.17;;;2.40;99.90;;;;;;4930279;28;20039;-75
2022/12/17 15:02:37;;;;;;;26.58;15.75;;;2.50;99.90;;;;;;4929641;28;20047;-75
2022/12/17 15:05:03;;;;;;;44.55;25.45;;;2.40;99.90;;;;;;4935261;28;20036;-73
2022/12/17 15:07:30;;;;;;;33.75;18.52;;;2.40;99.90;;;;;;4927337;28;20045;-72
2022/12/17 15:09:57;;;;;;;50.28;27.80;;;2.20;99.90;;;;;;4922356;28;20063;-73
2022/12/17 15:12:23;;;;;;;36.30;21.15;;;2.30;99.90;;;;;;4939920;28;20126;-73
2022/12/17 15:14:49;;;;;;;33.25;19.60;;;2.30;99.90;;;;;;4927768;28;20055;-72
2022/12/17 15:17:16;;;;;;;39.42;22.30;;;2.40;99.90;;;;;;4921268;28;20055;-73
2022/12/17 15:19:42;;;;;;;47.75;30.73;;;2.40;99.90;;;;;;4925373;28;20047;-74
2022/12/17 15:22:17;;;;;;;39.63;24.65;;;2.30;99.90;;;;;;4917187;29;20078;-74
2022/12/17 15:24:44;;;;;;;39.72;23.00;;;2.30;99.90;;;;;;4933686;28;20032;-74
2022/12/17 15:27:15;;;;;;;39.03;22.55;;;2.30;99.90;;;;;;4929475;28;20070;-74
2022/12/17 15:29:41;;;;;;;41.70;24.03;;;2.30;99.90;;;;;;4926519;28;20051;-74
2022/12/17 15:32:11;;;;;;;36.08;22.88;;;2.40;99.90;;;;;;4928320;28;20047;-72
2022/12/17 15:34:38;;;;;;;44.33;25.45;;;2.40;99.90;;;;;;4926360;28;20048;-72
2022/12/17 15:37:03;;;;;;;44.90;26.70;;;2.40;99.90;;;;;;4926847;28;20500;-72
2022/12/17 15:39:29;;;;;;;41.58;21.70;;;2.40;99.90;;;;;;4910929;28;20035;-73
2022/12/17 15:44:39;;;;;;;35.38;21.13;;;2.50;99.90;;;;;;4923104;28;20077;-73
2022/12/17 15:47:04;;;;;;;29.90;18.63;;;2.50;99.90;;;;;;4920325;28;20150;-73
2022/12/17 15:49:30;;;;;;;35.97;19.60;;;2.40;99.90;;;;;;4916656;28;20121;-73
2022/12/17 15:51:56;;;;;;;33.30;20.17;;;2.30;99.90;;;;;;4926727;28;20588;-73
2022/12/17 15:54:21;;;;;;;37.72;20.95;;;2.30;99.90;;;;;;4928005;28;20134;-72
2022/12/17 15:56:54;;;;;;;36.92;21.92;;;2.30;99.90;;;;;;4924847;28;20071;-73
2022/12/17 15:59:21;;;;;;;33.40;20.48;;;2.30;99.90;;;;;;4922501;28;20035;-75
2022/12/17 16:01:47;;;;;;;31.90;18.52;;;2.20;99.90;;;;;;4917003;28;20044;-75
2022/12/17 16:04:12;;;;;;;30.25;19.15;;;2.20;99.90;;;;;;4924696;28;20078;-73
2022/12/17 16:06:38;;;;;;;32.47;18.75;;;2.20;99.90;;;;;;4929541;28;20119;-73
2022/12/17 16:09:04;;;;;;;31.15;19.00;;;2.20;99.90;;;;;;4926331;28;20032;-74
2022/12/17 16:11:30;;;;;;;33.33;18.38;;;2.10;99.90;;;;;;4913016;28;20190;-74
2022/12/17 16:13:55;;;;;;;31.92;18.83;;;2.00;99.90;;;;;;4919421;28;20059;-74
2022/12/17 16:16:22;;;;;;;30.40;17.95;;;1.90;99.90;;;;;;4923241;28;20074;-73
2022/12/17 16:18:48;;;;;;;32.05;18.92;;;1.70;99.90;;;;;;4934415;28;20101;-74
2022/12/17 16:21:14;;;;;;;33.20;19.02;;;1.70;99.90;;;;;;4935692;28;20075;-75
2022/12/17 16:23:40;;;;;;;27.00;15.35;;;1.70;99.90;;;;;;4933014;28;20122;-75
2022/12/17 16:26:07;;;;;;;26.88;15.45;;;1.50;99.90;;;;;;4931263;28;20626;-77
2022/12/17 16:28:34;;;;;;;26.60;14.13;;;1.40;99.90;;;;;;4931698;28;20088;-78
2022/12/17 16:31:01;;;;;;;27.90;14.75;;;1.30;99.90;;;;;;4922392;28;20050;-76
2022/12/17 16:33:40;;;;;;;24.23;13.85;;;1.20;99.90;;;;;;4925397;28;20043;-76
2022/12/17 16:36:07;;;;;;;24.05;14.07;;;1.20;99.90;;;;;;4930456;28;20031;-74
2022/12/17 16:38:33;;;;;;;26.23;14.82;;;1.20;99.90;;;;;;4919782;28;20050;-74
2022/12/17 16:41:01;;;;;;;26.40;14.75;;;1.10;99.90;;;;;;4926826;28;20957;-76
2022/12/17 16:43:31;;;;;;;22.85;13.75;;;1.00;99.90;;;;;;4918642;29;20031;-74
2022/12/17 16:45:57;;;;;;;26.00;14.48;;;1.00;99.90;;;;;;4936264;28;20070;-74
2022/12/17 16:48:23;;;;;;;26.70;14.25;;;0.90;99.90;;;;;;4913403;28;20480;-73
2022/12/17 16:50:50;;;;;;;22.55;12.02;;;1.00;99.90;;;;;;4925282;28;20551;-73
2022/12/17 16:53:17;;;;;;;24.58;14.30;;;0.90;99.90;;;;;;4925400;28;20460;-74
2022/12/17 16:55:48;;;;;;;25.08;13.68;;;0.80;99.90;;;;;;4916777;29;20050;-74
2022/12/17 16:58:17;;;;;;;24.83;13.30;;;0.90;99.90;;;;;;4923937;28;20027;-72
2022/12/17 17:00:45;;;;;;;24.30;13.40;;;0.80;99.90;;;;;;4921360;28;20032;-73
2022/12/17 17:03:10;;;;;;;24.45;13.02;;;0.90;99.90;;;;;;4931987;28;20028;-75
2022/12/17 17:05:38;;;;;;;24.05;14.35;;;0.90;99.90;;;;;;4928464;28;20057;-74
2022/12/17 17:08:05;;;;;;;23.75;13.18;;;0.80;99.90;;;;;;4923841;28;20038;-73
2022/12/17 17:10:34;;;;;;;21.45;12.38;;;0.80;99.90;;;;;;4922216;28;20283;-74
2022/12/17 17:13:00;;;;;;;23.90;13.70;;;0.80;99.90;;;;;;4929488;28;20027;-73
2022/12/17 18:01:27;;;;;;;20.13;11.90;;;0.90;99.90;;;;;;4886453;28;1104207;-74
2022/12/17 18:03:58;;;;;;;21.40;12.30;;;0.90;99.90;;;;;;4936660;28;20560;-74
2022/12/17 18:06:25;;;;;;;22.42;11.68;;;0.90;99.90;;;;;;4929432;28;21192;-75
2022/12/17 18:08:51;;;;;;;18.67;10.55;;;0.90;99.90;;;;;;4939757;28;20039;-73
2022/12/17 18:11:19;;;;;;;19.30;10.45;;;0.90;99.90;;;;;;4929082;28;20043;-73
2022/12/17 18:13:54;;;;;;;20.17;11.52;;;1.00;99.90;;;;;;4932379;28;20043;-73
2022/12/17 18:16:40;;;;;;;20.80;11.98;;;1.00;99.90;;;;;;4930762;28;20079;-73
2022/12/17 18:19:09;;;;;;;19.77;11.48;;;1.10;99.90;;;;;;4934889;28;20079;-72
2022/12/17 18:21:35;;;;;;;20.73;11.55;;;1.10;99.90;;;;;;4925938;28;21535;-68
2022/12/17 18:24:04;;;;;;;20.10;11.07;;;1.00;99.90;;;;;;4905724;28;20297;-72
2022/12/17 18:26:36;;;;;;;25.63;13.90;;;1.00;99.90;;;;;;4924141;28;20027;-70
2022/12/17 18:29:06;;;;;;;;;;;1.00;99.90;;;;;;4926652;28;20044;-72
2022/12/17 18:31:32;;;;;;;29.70;16.23;;;1.00;99.90;;;;;;4924970;28;20545;-73
2022/12/17 18:33:59;;;;;;;23.70;12.60;;;1.00;99.90;;;;;;4923078;28;20056;-73
2022/12/17 18:36:31;;;;;;;26.95;14.68;;;1.10;99.90;;;;;;4928248;28;20078;-73
2022/12/17 18:39:03;;;;;;;23.00;12.63;;;1.10;99.90;;;;;;4938815;28;20027;-75
2022/12/17 18:44:14;;;;;;;21.45;11.75;;;1.10;99.90;;;;;;4930719;28;20046;-73
2022/12/17 18:46:40;;;;;;;23.42;11.32;;;1.10;99.90;;;;;;4934660;28;20036;-74
2022/12/17 18:49:08;;;;;;;21.42;12.23;;;1.20;99.90;;;;;;4923494;28;20034;-72
2022/12/17 18:51:36;;;;;;;23.80;12.52;;;1.20;99.90;;;;;;4934209;28;20063;-72
2022/12/17 18:54:05;;;;;;;27.42;14.77;;;1.30;99.90;;;;;;4933989;28;20062;-77
2022/12/17 18:56:32;;;;;;;19.20;11.52;;;1.40;99.90;;;;;;4905661;28;20173;-77
2022/12/17 18:58:58;;;;;;;20.67;11.50;;;1.40;99.90;;;;;;4929190;28;20134;-73
2022/12/17 19:01:26;;;;;;;18.83;10.70;;;1.40;99.90;;;;;;4938692;28;20055;-76
2022/12/17 19:03:53;;;;;;;22.05;11.88;;;1.40;99.90;;;;;;4933261;28;20061;-75
2022/12/17 19:06:20;;;;;;;19.17;10.50;;;1.40;99.90;;;;;;4927697;28;20039;-74
2022/12/17 19:08:48;;;;;;;19.35;10.98;;;1.40;99.90;;;;;;4929418;28;20044;-75
2022/12/17 19:11:17;;;;;;;20.15;10.25;;;1.40;99.90;;;;;;4916624;28;20048;-77
2022/12/17 19:13:45;;;;;;;18.45;9.95;;;1.40;99.90;;;;;;4935235;28;20039;-76
2022/12/17 19:16:13;;;;;;;19.33;10.77;;;1.50;99.90;;;;;;4936477;28;20046;-75
2022/12/17 19:18:40;;;;;;;21.65;12.23;;;1.50;99.90;;;;;;4933757;28;20031;-76
2022/12/17 19:21:07;;;;;;;22.02;11.98;;;1.60;99.90;;;;;;4939428;28;20035;-76
2022/12/17 19:23:36;;;;;;;23.67;14.15;;;1.60;99.90;;;;;;4932157;28;20035;-77
2022/12/17 19:26:17;;;;;;;25.80;13.18;;;1.60;99.90;;;;;;4931387;28;20179;-75
2022/12/17 19:28:46;;;;;;;22.17;11.60;;;1.70;99.90;;;;;;4936436;28;20044;-75
2022/12/17 19:31:12;;;;;;;20.42;11.90;;;1.70;99.90;;;;;;4931103;28;20098;-75
2022/12/17 19:33:38;;;;;;;26.58;15.23;;;1.70;99.90;;;;;;4934942;28;20075;-75
2022/12/17 19:36:11;;;;;;;29.60;16.25;;;1.60;99.90;;;;;;4933502;28;20134;-73
2022/12/17 19:38:37;;;;;;;30.35;17.27;;;1.70;99.90;;;;;;4915515;28;20121;-77
2022/12/17 19:41:05;;;;;;;19.52;11.40;;;1.70;99.90;;;;;;4928057;28;20043;-77
2022/12/17 19:43:31;;;;;;;20.67;11.25;;;1.70;99.90;;;;;;4921625;28;20250;-75
2022/12/17 19:46:11;;;;;;;20.13;12.07;;;1.80;99.90;;;;;;4937340;28;20047;-73
2022/12/17 19:48:38;;;;;;;24.48;13.75;;;1.90;99.90;;;;;;4936306;28;20035;-74
2022/12/17 19:51:06;;;;;;;23.52;11.38;;;1.90;99.90;;;;;;4927143;28;20040;-73
2022/12/17 19:53:33;;;;;;;29.85;15.50;;;1.90;99.90;;;;;;4929708;28;20036;-74
2022/12/17 19:56:29;;;;;;;28.23;15.68;;;2.00;99.90;;;;;;4936393;28;20337;-74
2022/12/17 19:58:57;;;;;;;31.95;18.63;;;2.00;99.90;;;;;;4916561;28;20117;-74
2022/12/17 20:01:25;;;;;;;23.25;13.13;;;1.80;99.90;;;;;;4941057;28;20070;-71
2022/12/17 20:03:52;;;;;;;25.38;13.90;;;1.80;99.90;;;;;;4936597;28;20035;-72
2022/12/17 20:06:21;;;;;;;27.58;16.83;;;1.90;99.90;;;;;;4930743;28;20039;-73
2022/12/17 20:08:47;;;;;;;28.52;15.93;;;1.90;99.90;;;;;;4933565;28;20035;-73
2022/12/17 20:11:32;;;;;;;26.75;15.05;;;1.90;99.90;;;;;;4935186;28;20615;-74
2022/12/17 20:14:10;;;;;;;28.77;16.60;;;1.80;99.90;;;;;;4936379;28;20105;-75
2022/12/17 20:16:39;;;;;;;27.88;16.75;;;1.80;99.90;;;;;;4932621;28;20064;-73
2022/12/17 20:19:11;;;;;;;30.73;17.75;;;1.90;99.90;;;;;;4933871;28;20047;-72
2022/12/17 20:21:37;;;;;;;;;;;2.10;99.90;;;;;;4929495;28;21859;-73
2022/12/17 20:24:03;;;;;;;26.35;15.15;;;2.10;99.90;;;;;;4923058;28;19915;-72
2022/12/17 20:26:30;;;;;;;28.67;15.80;;;2.00;99.90;;;;;;4937396;28;20054;-73
2022/12/17 20:28:57;;;;;;;29.33;16.80;;;2.00;99.90;;;;;;4932892;28;20043;-73
2022/12/17 20:31:22;;;;;;;32.13;18.55;;;1.90;99.90;;;;;;4915129;28;20083;-73
2022/12/17 20:33:48;;;;;;;28.27;16.10;;;1.80;99.90;;;;;;4918492;28;20182;-72
2022/12/17 20:36:18;;;;;;;35.85;19.60;;;1.60;99.90;;;;;;4930815;28;20039;-74
2022/12/17 20:38:44;;;;;;;27.13;15.05;;;1.50;99.90;;;;;;4921189;28;20401;-74
2022/12/17 20:41:11;;;;;;;26.77;13.88;;;1.50;99.90;;;;;;4934980;28;20050;-75
2022/12/17 20:43:37;;;;;;;28.17;16.70;;;1.60;99.90;;;;;;4934582;28;20509;-76
2022/12/17 20:46:03;;;;;;;29.58;16.55;;;1.60;99.90;;;;;;4936533;28;20055;-74
2022/12/17 20:48:28;;;;;;;34.33;18.33;;;1.70;99.90;;;;;;4925447;28;21355;-75
2022/12/17 20:50:54;;;;;;;31.02;16.90;;;1.60;99.90;;;;;;4923479;28;20051;-73
2022/12/17 20:53:20;;;;;;;29.52;17.38;;;1.60;99.90;;;;;;4913615;28;20039;-74
2022/12/17 20:55:46;;;;;;;29.33;17.13;;;1.60;99.90;;;;;;4929223;28;20035;-72
2022/12/17 20:58:15;;;;;;;29.27;16.73;;;1.60;99.90;;;;;;4929052;28;20031;-71
2022/12/17 21:00:40;;;;;;;28.00;15.02;;;1.50;99.90;;;;;;4917167;28;20047;-72
2022/12/17 21:03:06;;;;;;;27.38;15.45;;;1.60;99.90;;;;;;4930192;28;20497;-71
2022/12/17 21:05:34;;;;;;;29.17;16.10;;;1.60;99.90;;;;;;4914582;28;20139;-72
2022/12/17 21:08:00;;;;;;;34.95;17.88;;;1.50;99.90;;;;;;4924967;28;20513;-73
2022/12/17 21:10:26;;;;;;;30.55;18.60;;;1.50;99.90;;;;;;4923114;28;20035;-71
2022/12/17 21:15:36;;;;;;;29.83;16.60;;;1.60;99.90;;;;;;4921015;28;20154;-73
2022/12/17 21:18:02;;;;;;;31.38;17.08;;;1.30;99.90;;;;;;4921381;28;20050;-73
2022/12/17 21:20:27;;;;;;;31.75;16.63;;;1.20;99.90;;;;;;4917520;28;20444;-72
2022/12/17 21:22:54;;;;;;;33.38;18.35;;;1.20;99.90;;;;;;4923528;28;20142;-70
2022/12/17 21:25:19;;;;;;;32.17;16.50;;;1.30;99.90;;;;;;4925669;28;20039;-70
2022/12/17 21:27:45;;;;;;;30.23;17.15;;;1.30;99.90;;;;;;4929561;28;20046;-69
2022/12/17 21:30:11;;;;;;;42.10;22.90;;;1.40;99.90;;;;;;4924676;28;20047;-68
2022/12/17 21:32:37;;;;;;;31.00;18.27;;;1.40;99.90;;;;;;4931054;28;20054;-71
2022/12/17 21:35:03;;;;;;;28.08;15.85;;;1.50;99.90;;;;;;4918942;28;20754;-70
2022/12/17 21:37:29;;;;;;;29.10;16.00;;;1.60;99.90;;;;;;4922966;28;20047;-71
2022/12/17 21:39:54;;;;;;;27.02;16.42;;;1.70;99.90;;;;;;4923580;28;20560;-70
2022/12/17 21:45:04;;;;;;;37.75;19.90;;;1.70;99.90;;;;;;4931049;28;20077;-71
2022/12/17 21:47:30;;;;;;;25.48;15.00;;;1.70;99.90;;;;;;4929941;28;20620;-70
2022/12/17 21:49:55;;;;;;;23.67;14.02;;;1.70;99.90;;;;;;4930739;28;21864;-70
2022/12/17 21:52:21;;;;;;;27.90;15.35;;;1.80;99.90;;;;;;4922521;28;20325;-70
2022/12/17 21:54:47;;;;;;;25.75;14.65;;;1.80;99.90;;;;;;4927877;28;20040;-70
2022/12/17 21:57:12;;;;;;;26.13;15.48;;;1.80;99.90;;;;;;4922595;28;20058;-70
2022/12/17 21:59:38;;;;;;;26.55;15.52;;;1.90;99.90;;;;;;4927121;28;20039;-70
2022/12/17 22:02:03;;;;;;;32.05;17.92;;;1.90;99.90;;;;;;4919203;28;20146;-70
2022/12/17 22:04:29;;;;;;;35.25;19.50;;;1.90;99.90;;;;;;4924224;28;20040;-70
2022/12/17 22:06:55;;;;;;;31.20;16.98;;;1.80;99.90;;;;;;4924434;28;20106;-70
2022/12/17 22:09:20;;;;;;;25.95;15.05;;;1.80;99.90;;;;;;4925542;28;20606;-70
2022/12/17 22:11:46;;;;;;;30.75;16.30;;;1.70;99.90;;;;;;4925035;28;20492;-70
2022/12/17 22:14:12;;;;;;;26.52;15.50;;;1.80;99.90;;;;;;4915780;28;20042;-70
2022/12/17 22:16:45;;;;;;;25.15;14.70;;;1.70;99.90;;;;;;4918126;28;20032;-70
2022/12/17 22:19:21;;;;;;;25.92;15.32;;;1.80;99.90;;;;;;4920990;28;20063;-75
2022/12/17 22:21:48;;;;;;;28.15;15.05;;;1.80;99.90;;;;;;4923863;28;20043;-75
2022/12/17 22:24:16;;;;;;;25.23;15.35;;;1.90;99.90;;;;;;4922607;28;21291;-75
2022/12/17 22:26:42;;;;;;;25.02;14.50;;;1.80;99.90;;;;;;4925664;28;20047;-74
2022/12/17 22:29:07;;;;;;;26.35;15.40;;;1.80;99.90;;;;;;4925304;28;20058;-73
2022/12/17 22:34:17;;;;;;;25.45;14.60;;;1.90;99.90;;;;;;4930727;28;20511;-73
2022/12/17 22:36:43;;;;;;;26.20;14.43;;;1.80;99.90;;;;;;4932913;28;20243;-74
2022/12/17 22:39:12;;;;;;;33.38;16.77;;;1.80;99.90;;;;;;4925068;28;20039;-74
2022/12/17 22:44:23;;;;;;;32.45;18.10;;;2.00;99.90;;;;;;4931136;28;20094;-73
2022/12/17 22:46:49;;;;;;;30.92;18.17;;;1.90;99.90;;;;;;4929160;28;20051;-73
2022/12/17 22:49:16;;;;;;;30.30;16.83;;;1.80;99.90;;;;;;4922228;28;20043;-73
2022/12/17 22:51:42;;;;;;;27.98;16.40;;;1.90;99.90;;;;;;4933726;28;20126;-74
2022/12/17 22:54:08;;;;;;;25.65;14.85;;;1.90;99.90;;;;;;4933803;28;20039;-74
2022/12/17 22:56:35;;;;;;;25.27;14.98;;;1.90;99.90;;;;;;4927207;28;20040;-74
2022/12/17 22:59:01;;;;;;;25.85;13.80;;;1.90;99.90;;;;;;4929128;28;20015;-71
2022/12/17 23:01:26;;;;;;;20.48;13.48;;;1.90;99.90;;;;;;4921953;28;20055;-76
2022/12/17 23:03:56;;;;;;;23.13;13.88;;;1.80;99.90;;;;;;4914762;28;20650;-74
2022/12/17 23:06:22;;;;;;;23.25;13.43;;;1.70;99.90;;;;;;4929510;28;21041;-73
2022/12/17 23:08:48;;;;;;;23.75;13.57;;;1.70;99.90;;;;;;4925410;28;20058;-73
2022/12/17 23:11:19;;;;;;;25.45;15.75;;;1.70;99.90;;;;;;4928303;28;20568;-74
2022/12/17 23:13:45;;;;;;;29.33;17.25;;;1.80;99.90;;;;;;4924226;28;20865;-72
2022/12/17 23:16:12;;;;;;;30.13;16.13;;;1.80;99.90;;;;;;4929373;28;20098;-72
2022/12/17 23:18:39;;;;;;;24.80;15.07;;;1.80;99.90;;;;;;4927509;28;20035;-71
2022/12/17 23:21:10;;;;;;;26.73;16.05;;;1.80;99.90;;;;;;4925112;28;20031;-71
2022/12/17 23:23:36;;;;;;;26.13;15.40;;;1.70;99.90;;;;;;4912741;28;20089;-71
2022/12/17 23:26:11;;;;;;;26.13;14.82;;;1.70;99.90;;;;;;4925270;28;20039;-71
2022/12/17 23:28:37;;;;;;;24.05;13.13;;;1.70;99.90;;;;;;4925745;28;20040;-71
2022/12/17 23:31:17;;;;;;;22.85;13.73;;;1.70;99.90;;;;;;4915468;28;20042;-71
2022/12/17 23:33:44;;;;;;;25.38;14.18;;;1.70;99.90;;;;;;4922038;28;20102;-71
2022/12/17 23:36:16;;;;;;;26.98;14.05;;;1.70;99.90;;;;;;4923827;28;20066;-71
2022/12/17 23:38:43;;;;;;;25.58;15.43;;;1.70;99.90;;;;;;4907021;28;20039;-70
2022/12/17 23:41:11;;;;;;;30.77;16.50;;;1.70;99.90;;;;;;4922563;28;20863;-70
2022/12/17 23:43:38;;;;;;;21.23;14.32;;;1.70;99.90;;;;;;4924372;28;20386;-70
2022/12/17 23:46:05;;;;;;;25.38;13.98;;;1.60;99.90;;;;;;4902384;28;20130;-70
2022/12/17 23:48:33;;;;;;;23.70;14.13;;;1.60;99.90;;;;;;4928442;28;20043;-70
2022/12/17 23:51:00;;;;;;;23.63;13.02;;;1.50;99.90;;;;;;4932931;28;20055;-70
2022/12/17 23:53:27;;;;;;;22.50;13.27;;;1.20;99.90;;;;;;4917645;28;20047;-70
2022/12/17 23:55:53;;;;;;;23.08;13.02;;;0.90;99.90;;;;;;4921507;28;20174;-70
2022/12/17 23:58:19;;;;;;;25.52;13.70;;;0.70;99.90;;;;;;4926582;28;20684;-70
